Terminal Aerodrome Forecast
Issued by NWS Wilmington, OH

Home | Current Version | Previous Version | Text Only | Print | Product List | Glossary On
Versions: 1 2 3 4 5 6 7 8 9 10 11 12 13 14 15 16 17
233
FTUS41 KILN 270347 AAB
TAFILN
TAF AMD
KILN 270347Z 2704/2724 21004KT P6SM VCTS SCT050CB
     FM270500 21003KT P6SM SCT050
     FM270700 VRB02KT 4SM BR FEW100
      TEMPO 2709/2711 2SM BR
     FM271400 27004KT P6SM SKC
     FM271700 27005KT P6SM SCT050=

USA.gov is the U.S. government's official web portal to all federal, state and local government web resources and services.